createdAt,value
2024-04-14T00:00:19.156Z,9.333333
2024-04-14T00:01:19.814Z,9.277778
2024-04-14T00:02:19.267Z,9.277778
2024-04-14T00:03:19.330Z,9.222222
2024-04-14T00:04:19.420Z,9.222222
2024-04-14T00:05:19.608Z,9.166667
2024-04-14T00:06:19.468Z,9.166667
2024-04-14T00:07:19.482Z,9.111111
2024-04-14T00:08:18.955Z,9.055556
2024-04-14T00:09:19.090Z,9.055556
2024-04-14T00:10:19.188Z,9.000000
2024-04-14T00:11:19.194Z,9.000000
2024-04-14T00:12:19.262Z,9.000000
2024-04-14T00:13:19.248Z,8.944444
2024-04-14T00:14:19.328Z,8.944444
2024-04-14T00:15:19.315Z,8.888889
2024-04-14T00:16:19.410Z,8.888889
2024-04-14T00:17:19.497Z,8.888889
2024-04-14T00:18:19.513Z,8.833333
2024-04-14T00:19:19.095Z,8.833333
2024-04-14T00:20:19.610Z,8.833333
2024-04-14T00:21:19.117Z,8.777778
2024-04-14T00:22:19.177Z,8.777778
2024-04-14T00:23:19.270Z,8.777778
2024-04-14T00:24:19.374Z,8.777778
2024-04-14T00:25:19.298Z,8.722222
2024-04-14T00:26:19.374Z,8.722222
2024-04-14T00:27:20.071Z,8.666667
2024-04-14T00:28:19.499Z,8.666667
2024-04-14T00:29:19.523Z,8.666667
2024-04-14T00:30:19.673Z,8.666667
2024-04-14T00:31:19.614Z,8.611111
2024-04-14T00:32:19.622Z,8.555556
2024-04-14T00:33:19.384Z,8.555556
2024-04-14T00:34:19.324Z,8.555556
2024-04-14T00:35:19.346Z,8.500000
2024-04-14T00:36:19.417Z,8.500000
2024-04-14T00:37:19.352Z,8.500000
2024-04-14T00:38:19.409Z,8.444444
2024-04-14T00:39:19.426Z,8.444444
2024-04-14T00:40:19.482Z,8.388889
2024-04-14T00:41:20.434Z,8.388889
2024-04-14T00:42:19.642Z,8.333333
2024-04-14T00:43:19.104Z,8.333333
2024-04-14T00:44:19.640Z,8.333333
2024-04-14T00:45:19.220Z,8.333333
2024-04-14T00:46:19.212Z,8.277778
2024-04-14T00:47:19.341Z,8.277778
2024-04-14T00:48:19.516Z,8.277778
2024-04-14T00:49:19.455Z,8.222222
2024-04-14T00:50:19.437Z,8.277778
2024-04-14T00:51:19.406Z,8.222222
2024-04-14T00:52:19.559Z,8.222222
2024-04-14T00:53:19.532Z,8.222222
2024-04-14T00:54:20.100Z,8.166667
2024-04-14T00:55:20.914Z,8.222222
2024-04-14T00:56:19.185Z,8.166667
2024-04-14T00:57:19.174Z,8.166667
2024-04-14T00:58:19.286Z,8.166667
2024-04-14T00:59:19.307Z,8.166667
2024-04-14T01:00:19.400Z,8.166667
2024-04-14T01:01:19.492Z,8.166667
2024-04-14T01:02:19.426Z,8.111111
2024-04-14T01:03:19.544Z,8.111111
2024-04-14T01:04:19.673Z,8.111111
2024-04-14T01:05:19.625Z,8.111111
2024-04-14T01:06:19.730Z,8.111111
2024-04-14T01:07:19.653Z,8.111111
2024-04-14T01:08:19.228Z,8.055556
2024-04-14T01:09:19.318Z,8.055556
2024-04-14T01:10:19.354Z,8.055556
2024-04-14T01:11:19.408Z,8.055556
2024-04-14T01:12:19.383Z,8.000000
2024-04-14T01:13:19.498Z,8.000000
2024-04-14T01:14:19.448Z,8.000000
2024-04-14T01:15:19.576Z,7.944444
2024-04-14T01:16:19.616Z,7.944444
2024-04-14T01:17:19.648Z,8.000000
2024-04-14T01:18:19.231Z,8.000000
2024-04-14T01:19:19.269Z,7.944444
2024-04-14T01:20:19.262Z,7.944444
2024-04-14T01:21:19.290Z,7.944444
2024-04-14T01:22:19.403Z,7.944444
2024-04-14T01:23:19.425Z,7.888889
2024-04-14T01:24:19.458Z,7.888889
2024-04-14T01:25:19.503Z,7.833333
2024-04-14T01:26:19.525Z,7.833333
2024-04-14T01:27:19.519Z,7.777778
2024-04-14T01:28:19.738Z,7.777778
2024-04-14T01:29:19.729Z,7.722222
2024-04-14T01:30:19.228Z,7.777778
2024-04-14T01:31:19.378Z,7.722222
2024-04-14T01:32:19.529Z,7.722222
2024-04-14T01:33:19.388Z,7.722222
2024-04-14T01:34:19.448Z,7.777778
2024-04-14T01:35:20.439Z,7.722222
2024-04-14T01:36:19.476Z,7.722222
2024-04-14T01:37:19.500Z,7.666667
2024-04-14T01:38:24.970Z,7.666667
2024-04-14T01:39:19.647Z,7.666667
2024-04-14T01:40:19.721Z,7.666667
2024-04-14T01:41:19.682Z,7.666667
2024-04-14T01:42:19.198Z,7.611111
2024-04-14T01:43:19.275Z,7.611111
2024-04-14T01:44:19.435Z,7.611111
2024-04-14T01:45:19.387Z,7.555556
2024-04-14T01:46:19.382Z,7.611111
2024-04-14T01:47:20.039Z,7.611111
2024-04-14T01:48:19.576Z,7.555556
2024-04-14T01:49:19.630Z,7.611111
2024-04-14T01:50:19.579Z,7.611111
2024-04-14T01:51:19.685Z,7.611111
2024-04-14T01:52:19.760Z,7.611111
2024-04-14T01:53:19.222Z,7.611111
2024-04-14T01:54:19.772Z,7.611111
2024-04-14T01:55:19.365Z,7.611111
2024-04-14T01:56:19.396Z,7.611111
2024-04-14T01:57:19.443Z,7.666667
2024-04-14T01:58:19.411Z,7.611111
2024-04-14T01:59:19.524Z,7.611111
2024-04-14T02:00:19.545Z,7.666667
2024-04-14T02:01:19.576Z,7.611111
2024-04-14T02:02:19.709Z,7.666667
2024-04-14T02:03:19.827Z,7.611111
2024-04-14T02:04:29.452Z,7.611111
2024-04-14T02:05:19.520Z,7.555556
2024-04-14T02:06:19.544Z,7.555556
2024-04-14T02:07:19.664Z,7.555556
2024-04-14T02:08:19.648Z,7.555556
2024-04-14T02:09:19.859Z,7.611111
2024-04-14T02:10:19.793Z,7.611111
2024-04-14T02:11:20.670Z,7.555556
2024-04-14T02:12:19.453Z,7.555556
2024-04-14T02:13:19.482Z,7.555556
2024-04-14T02:14:19.422Z,7.555556
2024-04-14T02:15:19.498Z,7.555556
2024-04-14T02:16:19.566Z,7.555556
2024-04-14T02:17:19.615Z,7.555556
2024-04-14T02:18:19.644Z,7.555556
2024-04-14T02:19:19.674Z,7.555556
2024-04-14T02:20:19.714Z,7.555556
2024-04-14T02:21:19.751Z,7.500000
2024-04-14T02:22:19.844Z,7.555556
2024-04-14T02:23:19.320Z,7.555556
2024-04-14T02:24:19.559Z,7.555556
2024-04-14T02:25:19.498Z,7.500000
2024-04-14T02:26:19.470Z,7.500000
2024-04-14T02:27:19.475Z,7.500000
2024-04-14T02:28:20.040Z,7.500000
2024-04-14T02:29:19.570Z,7.500000
2024-04-14T02:30:19.653Z,7.500000
2024-04-14T02:31:19.687Z,7.500000
2024-04-14T02:32:19.902Z,7.500000
2024-04-14T02:33:19.775Z,7.500000
2024-04-14T02:34:19.391Z,7.444444
2024-04-14T02:35:19.400Z,7.500000
2024-04-14T02:36:19.417Z,7.444444
2024-04-14T02:37:19.475Z,7.444444
2024-04-14T02:38:19.580Z,7.500000
2024-04-14T02:39:19.601Z,7.444444
2024-04-14T02:40:20.150Z,7.500000
2024-04-14T02:41:19.591Z,7.444444
2024-04-14T02:42:19.630Z,7.444444
2024-04-14T02:43:19.869Z,7.444444
2024-04-14T02:44:19.781Z,7.444444
2024-04-14T02:45:19.282Z,7.444444
2024-04-14T02:46:19.837Z,7.444444
2024-04-14T02:47:19.386Z,7.444444
2024-04-14T02:48:19.552Z,7.444444
2024-04-14T02:49:19.510Z,7.444444
2024-04-14T02:50:19.542Z,7.444444
2024-04-14T02:51:19.602Z,7.444444
2024-04-14T02:52:19.764Z,7.444444
2024-04-14T02:53:19.789Z,7.444444
2024-04-14T02:54:19.708Z,7.444444
2024-04-14T02:55:19.796Z,7.444444
2024-04-14T02:56:19.785Z,7.444444
2024-04-14T02:57:19.319Z,7.444444
2024-04-14T02:58:19.402Z,7.388889
2024-04-14T02:59:19.373Z,7.388889
2024-04-14T03:00:19.580Z,7.388889
2024-04-14T03:01:19.581Z,7.388889
2024-04-14T03:02:19.582Z,7.388889
2024-04-14T03:03:19.590Z,7.388889
2024-04-14T03:04:22.480Z,7.388889
2024-04-14T03:05:19.697Z,7.388889
2024-04-14T03:06:19.832Z,7.333333
2024-04-14T03:07:19.833Z,7.333333
2024-04-14T03:08:19.898Z,7.333333
2024-04-14T03:09:19.900Z,7.333333
2024-04-14T03:10:19.494Z,7.333333
2024-04-14T03:11:19.488Z,7.333333
2024-04-14T03:12:19.539Z,7.333333
2024-04-14T03:13:19.599Z,7.333333
2024-04-14T03:14:19.667Z,7.333333
2024-04-14T03:15:20.084Z,7.333333
2024-04-14T03:16:19.720Z,7.277778
2024-04-14T03:17:19.768Z,7.277778
2024-04-14T03:18:19.758Z,7.277778
2024-04-14T03:19:19.844Z,7.277778
2024-04-14T03:20:19.332Z,7.277778
2024-04-14T03:21:21.700Z,7.277778
2024-04-14T03:22:19.508Z,7.277778
2024-04-14T03:23:19.534Z,7.277778
2024-04-14T03:24:19.598Z,7.333333
2024-04-14T03:25:19.994Z,7.333333
2024-04-14T03:26:19.690Z,7.277778
2024-04-14T03:27:19.696Z,7.277778
2024-04-14T03:28:19.890Z,7.277778
2024-04-14T03:29:22.051Z,7.277778
2024-04-14T03:30:19.898Z,7.222222
2024-04-14T03:31:19.951Z,7.277778
2024-04-14T03:32:19.504Z,7.222222
2024-04-14T03:33:19.513Z,7.277778
2024-04-14T03:34:19.553Z,7.222222
2024-04-14T03:35:19.619Z,7.222222
2024-04-14T03:36:19.601Z,7.222222
2024-04-14T03:37:19.685Z,7.222222
2024-04-14T03:38:19.693Z,7.222222
2024-04-14T03:39:19.719Z,7.222222
2024-04-14T03:40:19.808Z,7.222222
2024-04-14T03:41:19.962Z,7.222222
2024-04-14T03:42:20.017Z,7.222222
2024-04-14T03:43:20.017Z,7.277778
2024-04-14T03:44:20.141Z,7.222222
2024-04-14T03:45:20.060Z,7.222222
2024-04-14T03:46:19.564Z,7.222222
2024-04-14T03:47:19.644Z,7.222222
2024-04-14T03:48:19.836Z,7.222222
2024-04-14T03:49:19.856Z,7.222222
2024-04-14T03:50:19.718Z,7.166667
2024-04-14T03:51:19.831Z,7.222222
2024-04-14T03:52:19.813Z,7.222222
2024-04-14T03:53:19.891Z,7.222222
2024-04-14T03:54:19.855Z,7.222222
2024-04-14T03:55:19.990Z,7.222222
2024-04-14T03:56:19.569Z,7.222222
2024-04-14T03:57:19.560Z,7.222222
2024-04-14T03:58:19.632Z,7.222222
2024-04-14T03:59:19.631Z,7.222222
2024-04-14T04:00:19.745Z,7.166667
2024-04-14T04:01:20.068Z,7.166667
2024-04-14T04:02:19.904Z,7.222222
2024-04-14T04:03:18.315Z,7.166667
2024-04-14T04:04:20.070Z,7.166667
2024-04-14T04:05:20.454Z,7.166667
2024-04-14T04:06:19.939Z,7.166667
2024-04-14T04:07:19.512Z,7.166667
2024-04-14T04:08:19.590Z,7.166667
2024-04-14T04:09:21.036Z,7.166667
2024-04-14T04:10:19.923Z,7.166667
2024-04-14T04:11:19.751Z,7.166667
2024-04-14T04:12:19.726Z,7.166667
2024-04-14T04:13:19.756Z,7.166667
2024-04-14T04:14:19.776Z,7.111111
2024-04-14T04:15:19.846Z,7.111111
2024-04-14T04:16:20.084Z,7.111111
2024-04-14T04:17:18.458Z,7.111111
2024-04-14T04:18:19.510Z,7.111111
2024-04-14T04:19:26.124Z,7.111111
2024-04-14T04:20:19.670Z,7.111111
2024-04-14T04:21:19.580Z,7.111111
2024-04-14T04:22:19.785Z,7.111111
2024-04-14T04:23:19.692Z,7.111111
2024-04-14T04:24:23.607Z,7.111111
2024-04-14T04:25:19.809Z,7.111111
2024-04-14T04:26:19.806Z,7.111111
2024-04-14T04:27:20.000Z,7.111111
2024-04-14T04:28:19.882Z,7.111111
2024-04-14T04:29:19.980Z,7.111111
2024-04-14T04:30:20.118Z,7.111111
2024-04-14T04:31:20.801Z,7.111111
2024-04-14T04:32:19.705Z,7.111111
2024-04-14T04:33:19.835Z,7.055556
2024-04-14T04:34:19.880Z,7.111111
2024-04-14T04:35:19.773Z,7.055556
2024-04-14T04:36:19.849Z,7.111111
2024-04-14T04:37:19.875Z,7.111111
2024-04-14T04:38:18.530Z,7.111111
2024-04-14T04:39:19.959Z,7.111111
2024-04-14T04:40:20.026Z,7.111111
2024-04-14T04:41:20.024Z,7.111111
2024-04-14T04:42:19.560Z,7.111111
2024-04-14T04:43:19.580Z,7.111111
2024-04-14T04:44:19.634Z,7.111111
2024-04-14T04:45:19.719Z,7.111111
2024-04-14T04:46:19.794Z,7.111111
2024-04-14T04:47:19.848Z,7.111111
2024-04-14T04:48:19.968Z,7.111111
2024-04-14T04:49:19.927Z,7.111111
2024-04-14T04:50:20.010Z,7.111111
2024-04-14T04:51:20.115Z,7.166667
2024-04-14T04:52:19.987Z,7.166667
2024-04-14T04:53:20.084Z,7.166667
2024-04-14T04:54:20.087Z,7.166667
2024-04-14T04:55:19.631Z,7.166667
2024-04-14T04:56:19.723Z,7.222222
2024-04-14T04:57:19.828Z,7.222222
2024-04-14T04:58:19.887Z,7.222222
2024-04-14T04:59:18.429Z,7.222222
2024-04-14T05:00:19.900Z,7.277778
2024-04-14T05:01:20.058Z,7.277778
2024-04-14T05:02:20.061Z,7.222222
2024-04-14T05:03:20.004Z,7.277778
2024-04-14T05:04:20.200Z,7.277778
2024-04-14T05:05:19.652Z,7.333333
2024-04-14T05:06:20.136Z,7.333333
2024-04-14T05:07:19.701Z,7.333333
2024-04-14T05:08:19.846Z,7.388889
2024-04-14T05:09:19.772Z,7.444444
2024-04-14T05:10:19.998Z,7.444444
2024-04-14T05:11:19.888Z,7.500000
2024-04-14T05:12:19.947Z,7.555556
2024-04-14T05:13:18.427Z,7.555556
2024-04-14T05:14:20.047Z,7.611111
2024-04-14T05:15:20.153Z,7.611111
2024-04-14T05:16:18.673Z,7.666667
2024-04-14T05:17:20.127Z,7.666667
2024-04-14T05:18:19.835Z,7.722222
2024-04-14T05:19:19.793Z,7.722222
2024-04-14T05:20:19.798Z,7.777778
2024-04-14T05:21:19.828Z,7.777778
2024-04-14T05:22:19.950Z,7.833333
2024-04-14T05:23:19.984Z,7.833333
2024-04-14T05:24:19.931Z,7.833333
2024-04-14T05:25:20.025Z,7.944444
2024-04-14T05:26:20.100Z,7.944444
2024-04-14T05:27:18.733Z,7.944444
2024-04-14T05:28:20.165Z,8.000000
2024-04-14T05:29:20.163Z,8.055556
2024-04-14T05:30:19.692Z,8.000000
2024-04-14T05:31:20.303Z,8.055556
2024-04-14T05:32:20.103Z,8.055556
2024-04-14T05:33:19.888Z,8.111111
2024-04-14T05:34:18.458Z,8.111111
2024-04-14T05:35:19.905Z,8.166667
2024-04-14T05:36:19.962Z,8.222222
2024-04-14T05:37:20.136Z,8.222222
2024-04-14T05:38:20.079Z,8.222222
2024-04-14T05:39:20.166Z,8.277778
2024-04-14T05:40:20.211Z,8.333333
2024-04-14T05:41:19.693Z,8.333333
2024-04-14T05:42:19.813Z,8.333333
2024-04-14T05:43:19.844Z,8.388889
2024-04-14T05:44:19.890Z,8.444444
2024-04-14T05:45:19.914Z,8.500000
2024-04-14T05:46:19.923Z,8.555556
2024-04-14T05:47:19.983Z,8.555556
2024-04-14T05:48:18.628Z,8.611111
2024-04-14T05:49:20.195Z,8.666667
2024-04-14T05:50:20.232Z,8.722222
2024-04-14T05:51:20.199Z,8.722222
2024-04-14T05:52:20.589Z,8.833333
2024-04-14T05:53:19.714Z,8.833333
2024-04-14T05:54:19.820Z,8.888889
2024-04-14T05:55:18.376Z,8.888889
2024-04-14T05:56:19.861Z,9.000000
2024-04-14T05:57:19.907Z,9.000000
2024-04-14T05:58:20.031Z,9.055556
2024-04-14T05:59:20.089Z,9.111111
2024-04-14T06:00:20.051Z,9.166667
2024-04-14T06:01:20.280Z,9.222222
2024-04-14T06:02:18.655Z,9.222222
2024-04-14T06:03:20.213Z,9.277778
2024-04-14T06:04:19.887Z,9.277778
2024-04-14T06:05:19.811Z,9.333333
2024-04-14T06:06:19.855Z,9.333333
2024-04-14T06:07:19.921Z,9.388889
2024-04-14T06:08:19.961Z,9.444444
2024-04-14T06:09:18.520Z,9.500000
2024-04-14T06:10:19.982Z,9.555556
2024-04-14T06:11:20.103Z,9.611111
2024-04-14T06:12:20.162Z,9.666667
2024-04-14T06:13:20.168Z,9.722222
2024-04-14T06:14:20.124Z,9.888889
2024-04-14T06:15:20.350Z,9.944444
2024-04-14T06:16:19.805Z,10.055556
2024-04-14T06:17:19.840Z,10.166667
2024-04-14T06:18:19.938Z,10.277778
2024-04-14T06:19:19.883Z,10.333333
2024-04-14T06:20:19.930Z,10.388889
2024-04-14T06:21:20.015Z,10.444444
2024-04-14T06:22:20.146Z,10.500000
2024-04-14T06:23:21.265Z,10.611111
2024-04-14T06:24:20.634Z,10.611111
2024-04-14T06:25:20.158Z,10.666667
2024-04-14T06:26:20.277Z,10.722222
2024-04-14T06:27:19.747Z,10.777778
2024-04-14T06:28:19.829Z,10.888889
2024-04-14T06:29:19.922Z,11.000000
2024-04-14T06:30:18.470Z,11.055556
2024-04-14T06:31:19.903Z,11.222222
2024-04-14T06:32:20.073Z,11.333333
2024-04-14T06:33:20.091Z,11.444444
2024-04-14T06:34:20.388Z,11.611111
2024-04-14T06:35:20.117Z,11.777778
2024-04-14T06:36:20.748Z,11.944444
2024-04-14T06:37:18.713Z,12.055556
2024-04-14T06:38:20.326Z,12.166667
2024-04-14T06:39:19.787Z,12.277778
2024-04-14T06:40:19.868Z,12.388889
2024-04-14T06:41:19.887Z,12.444444
2024-04-14T06:42:19.938Z,12.500000
2024-04-14T06:43:20.000Z,12.611111
2024-04-14T06:44:18.546Z,12.666667
2024-04-14T06:45:20.140Z,12.777778
2024-04-14T06:46:20.168Z,12.833333
2024-04-14T06:47:20.259Z,12.944444
2024-04-14T06:48:20.254Z,13.000000
2024-04-14T06:49:20.270Z,13.111111
2024-04-14T06:50:19.935Z,13.222222
2024-04-14T06:51:19.812Z,13.333333
2024-04-14T06:52:19.912Z,13.388889
2024-04-14T06:53:19.951Z,13.388889
2024-04-14T06:54:19.983Z,13.444444
2024-04-14T06:55:21.315Z,13.500000
2024-04-14T06:56:20.129Z,13.555556
2024-04-14T06:57:20.198Z,13.611111
2024-04-14T06:58:18.690Z,13.722222
2024-04-14T06:59:20.262Z,13.777778
2024-04-14T07:00:20.272Z,13.888889
2024-04-14T07:01:20.393Z,14.000000
2024-04-14T07:02:20.382Z,14.166667
2024-04-14T07:03:19.914Z,14.222222
2024-04-14T07:04:20.000Z,14.388889
2024-04-14T07:05:18.452Z,14.500000
2024-04-14T07:06:20.094Z,14.611111
2024-04-14T07:07:20.102Z,14.722222
2024-04-14T07:08:20.086Z,14.888889
2024-04-14T07:09:20.189Z,15.055556
2024-04-14T07:10:22.133Z,15.277778
2024-04-14T07:11:20.392Z,15.444444
2024-04-14T07:12:18.772Z,15.722222
2024-04-14T07:13:20.294Z,15.888889
2024-04-14T07:14:18.371Z,16.000000
2024-04-14T07:15:23.575Z,16.166667
2024-04-14T07:16:20.003Z,16.277778
2024-04-14T07:17:20.508Z,16.388889
2024-04-14T07:18:20.178Z,16.555556
2024-04-14T07:19:18.577Z,16.722222
2024-04-14T07:20:20.229Z,16.833333
2024-04-14T07:21:20.161Z,17.055556
2024-04-14T07:22:20.308Z,17.222222
2024-04-14T07:23:20.409Z,17.388889
2024-04-14T07:24:20.620Z,17.555556
2024-04-14T07:25:20.378Z,17.777778
2024-04-14T07:26:18.434Z,17.944444
2024-04-14T07:27:19.959Z,18.111111
2024-04-14T07:28:19.964Z,18.333333
2024-04-14T07:29:20.522Z,18.555556
2024-04-14T07:30:20.137Z,18.722222
2024-04-14T07:31:22.574Z,18.888889
2024-04-14T07:32:20.218Z,19.055556
2024-04-14T07:33:18.820Z,19.222222
2024-04-14T07:34:20.283Z,19.388889
2024-04-14T07:35:20.504Z,19.500000
2024-04-14T07:36:19.816Z,19.666667
2024-04-14T07:37:22.314Z,19.833333
2024-04-14T07:38:19.916Z,20.000000
2024-04-14T07:39:19.985Z,20.111111
2024-04-14T07:40:18.579Z,20.277778
2024-04-14T07:41:20.664Z,20.444444
2024-04-14T07:42:20.129Z,20.611111
2024-04-14T07:43:20.200Z,20.777778
2024-04-14T07:44:20.233Z,20.888889
2024-04-14T07:45:20.274Z,21.055556
2024-04-14T07:46:20.298Z,21.111111
2024-04-14T07:47:19.025Z,21.222222
2024-04-14T07:48:18.560Z,21.277778
2024-04-14T07:49:18.542Z,21.333333
2024-04-14T07:50:20.029Z,21.388889
2024-04-14T07:51:20.003Z,21.444444
2024-04-14T07:52:20.136Z,21.555556
2024-04-14T07:53:20.227Z,21.666667
2024-04-14T07:54:18.794Z,21.777778
2024-04-14T07:55:20.184Z,21.888889
2024-04-14T07:56:20.040Z,22.055556
2024-04-14T07:57:20.140Z,22.222222
2024-04-14T07:58:20.083Z,22.277778
2024-04-14T07:59:20.247Z,22.444444
2024-04-14T08:00:20.169Z,22.555556
2024-04-14T08:01:19.069Z,22.611111
2024-04-14T08:02:20.410Z,22.722222
2024-04-14T08:03:20.422Z,22.777778
2024-04-14T08:04:18.677Z,22.833333
2024-04-14T08:05:18.611Z,22.888889
2024-04-14T08:06:19.951Z,22.944444
2024-04-14T08:07:20.001Z,23.055556
2024-04-14T08:08:18.633Z,23.166667
2024-04-14T08:09:20.116Z,23.166667
2024-04-14T08:10:20.152Z,23.222222
2024-04-14T08:11:20.223Z,23.277778
2024-04-14T08:12:20.192Z,23.388889
2024-04-14T08:13:20.269Z,23.444444
2024-04-14T08:14:18.320Z,23.555556
2024-04-14T08:15:18.866Z,23.611111
2024-04-14T08:16:18.510Z,23.666667
2024-04-14T08:17:18.447Z,23.666667
2024-04-14T08:18:20.638Z,23.666667
2024-04-14T08:19:18.628Z,23.611111
2024-04-14T08:20:20.063Z,23.611111
2024-04-14T08:21:20.203Z,23.555556
2024-04-14T08:22:18.677Z,23.555556
2024-04-14T08:23:20.316Z,23.666667
2024-04-14T08:24:20.255Z,23.777778
2024-04-14T08:25:21.303Z,23.833333
2024-04-14T08:26:18.541Z,23.833333
2024-04-14T08:27:18.433Z,23.888889
2024-04-14T08:28:18.480Z,23.944444
2024-04-14T08:29:19.008Z,24.000000
2024-04-14T08:30:20.182Z,24.055556
2024-04-14T08:31:20.098Z,24.111111
2024-04-14T08:32:20.103Z,24.277778
2024-04-14T08:33:20.237Z,24.277778
2024-04-14T08:34:20.280Z,24.388889
2024-04-14T08:35:22.623Z,24.444444
2024-04-14T08:36:18.838Z,24.444444
2024-04-14T08:37:21.126Z,24.444444
2024-04-14T08:38:18.437Z,24.444444
2024-04-14T08:39:18.414Z,24.500000
2024-04-14T08:40:18.506Z,24.500000
2024-04-14T08:41:20.099Z,24.555556
2024-04-14T08:42:20.167Z,24.555556
2024-04-14T08:43:18.678Z,24.500000
2024-04-14T08:44:20.125Z,24.555556
2024-04-14T08:45:20.271Z,24.555556
2024-04-14T08:46:20.884Z,24.666667
2024-04-14T08:47:20.295Z,24.777778
2024-04-14T08:48:18.584Z,24.833333
2024-04-14T08:49:18.414Z,24.833333
2024-04-14T08:50:18.942Z,24.833333
2024-04-14T08:51:18.539Z,25.000000
2024-04-14T08:52:20.396Z,25.166667
2024-04-14T08:53:20.198Z,25.333333
2024-04-14T08:54:20.207Z,25.388889
2024-04-14T08:55:20.196Z,25.500000
2024-04-14T08:56:20.177Z,25.555556
2024-04-14T08:57:18.800Z,25.555556
2024-04-14T08:58:20.326Z,25.611111
2024-04-14T08:59:20.341Z,25.555556
2024-04-14T09:00:19.708Z,25.500000
2024-04-14T09:01:18.697Z,25.555556
2024-04-14T09:02:18.480Z,25.666667
2024-04-14T09:03:18.568Z,25.722222
2024-04-14T09:04:18.636Z,25.777778
2024-04-14T09:05:20.151Z,25.777778
2024-04-14T09:06:20.167Z,25.777778
2024-04-14T09:07:20.299Z,25.722222
2024-04-14T09:08:20.382Z,25.777778
2024-04-14T09:09:20.352Z,25.666667
2024-04-14T09:10:18.320Z,25.666667
2024-04-14T09:11:19.019Z,25.666667
2024-04-14T09:12:18.462Z,25.722222
2024-04-14T09:13:18.523Z,25.722222
2024-04-14T09:14:18.550Z,25.833333
2024-04-14T09:15:18.620Z,25.944444
2024-04-14T09:16:20.697Z,26.055556
2024-04-14T09:17:20.186Z,26.055556
2024-04-14T09:18:18.763Z,26.166667
2024-04-14T09:19:20.260Z,26.166667
2024-04-14T09:20:20.429Z,26.166667
2024-04-14T09:21:27.905Z,26.222222
2024-04-14T09:22:18.525Z,26.222222
2024-04-14T09:23:18.384Z,26.277778
2024-04-14T09:24:18.944Z,26.277778
2024-04-14T09:25:19.905Z,26.222222
2024-04-14T09:26:18.510Z,26.166667
2024-04-14T09:27:18.606Z,26.111111
2024-04-14T09:28:20.167Z,26.166667
2024-04-14T09:29:20.307Z,26.166667
2024-04-14T09:30:20.434Z,26.166667
2024-04-14T09:31:20.360Z,26.166667
2024-04-14T09:32:18.843Z,26.277778
2024-04-14T09:33:18.462Z,26.388889
2024-04-14T09:34:18.488Z,26.444444
2024-04-14T09:35:18.491Z,26.500000
2024-04-14T09:36:19.088Z,26.611111
2024-04-14T09:37:18.542Z,26.666667
2024-04-14T09:38:18.574Z,26.722222
2024-04-14T09:39:18.693Z,26.777778
2024-04-14T09:40:20.140Z,26.777778
2024-04-14T09:41:20.242Z,26.777778
2024-04-14T09:42:20.245Z,26.722222
2024-04-14T09:43:18.364Z,26.611111
2024-04-14T09:44:21.643Z,26.555556
2024-04-14T09:45:18.500Z,26.611111
2024-04-14T09:46:19.045Z,26.722222
2024-04-14T09:47:18.539Z,26.722222
2024-04-14T09:48:18.591Z,26.722222
2024-04-14T09:49:18.585Z,26.888889
2024-04-14T09:50:22.038Z,26.944444
2024-04-14T09:51:20.741Z,27.000000
2024-04-14T09:52:20.174Z,27.000000
2024-04-14T09:53:20.281Z,27.055556
2024-04-14T09:54:18.303Z,27.055556
2024-04-14T09:55:20.320Z,27.166667
2024-04-14T09:56:18.424Z,27.166667
2024-04-14T09:57:18.552Z,27.111111
2024-04-14T09:58:18.512Z,27.166667
2024-04-14T09:59:19.134Z,27.111111
2024-04-14T10:00:19.124Z,27.055556
2024-04-14T10:01:18.688Z,27.000000
2024-04-14T10:02:20.452Z,26.944444
2024-04-14T10:03:20.331Z,27.111111
2024-04-14T10:04:20.335Z,27.111111
2024-04-14T10:05:18.938Z,27.111111
2024-04-14T10:06:18.311Z,27.055556
2024-04-14T10:07:18.930Z,27.111111
2024-04-14T10:08:20.005Z,27.111111
2024-04-14T10:09:18.556Z,27.111111
2024-04-14T10:10:18.566Z,27.111111
2024-04-14T10:11:18.724Z,27.111111
2024-04-14T10:12:18.659Z,27.055556
2024-04-14T10:13:18.684Z,27.000000
2024-04-14T10:14:19.172Z,26.944444
2024-04-14T10:15:20.247Z,26.944444
2024-04-14T10:16:20.443Z,27.000000
2024-04-14T10:17:18.877Z,27.000000
2024-04-14T10:18:18.522Z,27.055556
2024-04-14T10:19:18.447Z,27.111111
2024-04-14T10:20:18.538Z,27.000000
2024-04-14T10:21:19.027Z,26.833333
2024-04-14T10:22:18.582Z,26.777778
2024-04-14T10:23:18.756Z,26.611111
2024-04-14T10:24:18.633Z,26.555556
2024-04-14T10:25:18.740Z,26.555556
2024-04-14T10:26:19.075Z,26.666667
2024-04-14T10:27:20.247Z,26.777778
2024-04-14T10:28:18.787Z,26.833333
2024-04-14T10:29:18.358Z,26.777778
2024-04-14T10:30:18.675Z,26.833333
2024-04-14T10:31:18.510Z,26.833333
2024-04-14T10:32:18.531Z,26.888889
2024-04-14T10:33:18.649Z,26.888889
2024-04-14T10:34:18.753Z,26.833333
2024-04-14T10:35:19.103Z,26.833333
2024-04-14T10:36:18.802Z,26.833333
2024-04-14T10:37:20.280Z,26.833333
2024-04-14T10:38:20.265Z,26.888889
2024-04-14T10:39:20.403Z,26.944444
2024-04-14T10:40:20.387Z,26.944444
2024-04-14T10:41:18.913Z,27.000000
2024-04-14T10:42:19.075Z,27.055556
2024-04-14T10:43:18.794Z,27.055556
2024-04-14T10:44:20.810Z,27.055556
2024-04-14T10:45:18.459Z,27.055556
2024-04-14T10:46:18.400Z,27.000000
2024-04-14T10:47:18.633Z,26.944444
2024-04-14T10:48:18.517Z,26.833333
2024-04-14T10:49:19.018Z,26.722222
2024-04-14T10:50:18.652Z,26.666667
2024-04-14T10:51:18.641Z,26.611111
2024-04-14T10:52:18.692Z,26.611111
2024-04-14T10:53:18.757Z,26.666667
2024-04-14T10:54:18.799Z,26.666667
2024-04-14T10:55:20.322Z,26.722222
2024-04-14T10:56:18.852Z,26.722222
2024-04-14T10:57:18.457Z,26.666667
2024-04-14T10:58:18.510Z,26.500000
2024-04-14T10:59:18.536Z,26.444444
2024-04-14T11:00:18.504Z,26.333333
2024-04-14T11:01:18.767Z,26.277778
2024-04-14T11:02:18.651Z,26.277778
2024-04-14T11:03:19.199Z,26.222222
2024-04-14T11:04:18.884Z,26.222222
2024-04-14T11:05:18.763Z,26.277778
2024-04-14T11:06:18.854Z,26.277778
2024-04-14T11:07:18.340Z,26.388889
2024-04-14T11:08:18.434Z,26.444444
2024-04-14T11:09:18.459Z,26.500000
2024-04-14T11:10:18.567Z,26.444444
2024-04-14T11:11:18.613Z,26.444444
2024-04-14T11:12:18.577Z,26.388889
2024-04-14T11:13:18.639Z,26.333333
2024-04-14T11:14:18.674Z,26.333333
2024-04-14T11:15:18.753Z,26.333333
2024-04-14T11:16:18.930Z,26.388889
2024-04-14T11:17:19.301Z,26.388889
2024-04-14T11:18:18.452Z,26.388889
2024-04-14T11:19:18.372Z,26.388889
2024-04-14T11:20:18.510Z,26.388889
2024-04-14T11:21:18.547Z,26.444444
2024-04-14T11:22:19.184Z,26.388889
2024-04-14T11:23:18.665Z,26.388889
2024-04-14T11:24:19.101Z,26.388889
2024-04-14T11:25:18.890Z,26.388889
2024-04-14T11:26:18.689Z,26.388889
2024-04-14T11:27:18.785Z,26.333333
2024-04-14T11:28:18.793Z,26.388889
2024-04-14T11:29:18.817Z,26.388889
2024-04-14T11:30:18.567Z,26.333333
2024-04-14T11:31:18.895Z,26.333333
2024-04-14T11:32:18.545Z,26.333333
2024-04-14T11:33:18.521Z,26.333333
2024-04-14T11:34:18.595Z,26.388889
2024-04-14T11:35:18.710Z,26.500000